createdAt,value
2019-01-13T00:00:48.253Z,27.70
2019-01-13T00:03:15.872Z,27.70
2019-01-13T00:05:43.543Z,27.80
2019-01-13T00:08:11.330Z,27.80
2019-01-13T00:10:38.976Z,27.80
2019-01-13T00:13:06.676Z,27.80
2019-01-13T00:15:34.374Z,27.80
2019-01-13T00:18:01.996Z,27.90
2019-01-13T00:20:29.604Z,27.90
2019-01-13T00:22:57.261Z,27.90
2019-01-13T00:25:24.922Z,28.00
2019-01-13T00:27:52.529Z,28.00
2019-01-13T00:30:20.164Z,28.00
2019-01-13T00:32:47.786Z,28.00
2019-01-13T00:35:16.587Z,28.00
2019-01-13T00:37:44.404Z,28.00
2019-01-13T00:40:13.642Z,28.00
2019-01-13T00:42:41.262Z,28.00
2019-01-13T00:45:09.676Z,28.50
2019-01-13T00:47:37.391Z,28.20
2019-01-13T00:50:06.708Z,28.00
2019-01-13T00:52:34.331Z,28.00
2019-01-13T00:55:02.122Z,28.00
2019-01-13T00:57:29.794Z,28.00
2019-01-13T00:59:57.396Z,28.00
2019-01-13T01:02:25.062Z,28.00
2019-01-13T01:04:52.678Z,28.00
2019-01-13T01:07:20.286Z,28.00
2019-01-13T01:09:48.054Z,28.00
2019-01-13T01:12:15.694Z,28.00
2019-01-13T01:14:43.330Z,28.00
2019-01-13T01:17:10.938Z,28.00
2019-01-13T01:19:38.558Z,28.50
2019-01-13T01:22:06.282Z,28.00
2019-01-13T01:24:33.870Z,28.00
2019-01-13T01:27:01.664Z,28.00
2019-01-13T01:29:29.273Z,28.00
2019-01-13T01:31:56.930Z,28.00
2019-01-13T01:34:24.570Z,28.00
2019-01-13T01:36:54.212Z,28.00
2019-01-13T01:39:21.502Z,28.10
2019-01-13T01:41:49.281Z,28.10
2019-01-13T01:44:16.858Z,28.10
2019-01-13T01:46:44.478Z,28.10
2019-01-13T01:49:12.179Z,28.10
2019-01-13T01:51:39.791Z,28.10
2019-01-13T01:54:07.483Z,28.10
2019-01-13T01:56:35.133Z,28.20
2019-01-13T01:59:02.756Z,28.10
2019-01-13T02:01:30.356Z,28.50
2019-01-13T02:03:58.004Z,28.40
2019-01-13T02:06:25.593Z,28.40
2019-01-13T02:08:53.220Z,28.70
2019-01-13T02:11:20.954Z,28.50
2019-01-13T02:13:48.621Z,28.60
2019-01-13T02:16:16.226Z,28.60
2019-01-13T02:18:44.030Z,28.70
2019-01-13T02:21:11.624Z,28.70
2019-01-13T02:23:39.277Z,29.20
2019-01-13T02:26:07.019Z,28.60
2019-01-13T02:28:34.615Z,28.60
2019-01-13T02:31:02.193Z,28.60
2019-01-13T02:33:29.855Z,28.70
2019-01-13T02:35:57.500Z,28.60
2019-01-13T02:38:25.132Z,28.70
2019-01-13T02:40:52.778Z,28.60
2019-01-13T02:43:20.379Z,28.60
2019-01-13T02:45:48.045Z,28.60
2019-01-13T02:48:15.690Z,28.70
2019-01-13T02:50:43.373Z,28.70
2019-01-13T02:53:11.022Z,28.60
2019-01-13T02:55:38.636Z,28.70
2019-01-13T02:58:06.258Z,28.70
2019-01-13T03:00:33.980Z,28.70
2019-01-13T03:03:01.669Z,28.70
2019-01-13T03:05:29.339Z,28.70
2019-01-13T03:07:56.942Z,28.80
2019-01-13T03:10:24.566Z,28.60
2019-01-13T03:12:52.257Z,28.70
2019-01-13T03:15:20.669Z,28.60
2019-01-13T03:17:48.536Z,28.80
2019-01-13T03:20:16.191Z,28.80
2019-01-13T03:22:43.799Z,28.70
2019-01-13T03:25:15.211Z,28.70
2019-01-13T03:27:42.926Z,28.70
2019-01-13T03:30:12.159Z,28.80
2019-01-13T03:32:39.821Z,28.80
2019-01-13T03:35:07.465Z,28.80
2019-01-13T03:37:35.056Z,28.90
2019-01-13T03:40:02.640Z,29.00
2019-01-13T03:42:30.305Z,28.90
2019-01-13T03:44:57.876Z,29.00
2019-01-13T03:47:25.510Z,29.10
2019-01-13T03:49:53.210Z,29.00
2019-01-13T03:52:20.827Z,29.10
2019-01-13T03:54:48.457Z,29.70
2019-01-13T03:57:16.175Z,29.10
2019-01-13T03:59:43.780Z,29.10
2019-01-13T04:02:11.387Z,29.20
2019-01-13T04:04:39.052Z,29.00
2019-01-13T04:07:06.695Z,29.20
2019-01-13T04:09:34.366Z,29.10
2019-01-13T04:12:02.037Z,29.20
2019-01-13T04:14:29.669Z,29.30
2019-01-13T04:16:57.325Z,29.20
2019-01-13T04:19:24.996Z,29.30
2019-01-13T04:21:52.687Z,29.30
2019-01-13T04:24:20.291Z,29.20
2019-01-13T04:26:47.957Z,29.30
2019-01-13T04:29:15.569Z,29.30
2019-01-13T04:31:43.239Z,29.40
2019-01-13T04:34:10.868Z,29.30
2019-01-13T04:36:38.479Z,29.40
2019-01-13T04:39:06.307Z,29.40
2019-01-13T04:41:34.023Z,29.30
2019-01-13T04:44:01.631Z,29.20
2019-01-13T04:46:29.281Z,29.20
2019-01-13T04:48:56.971Z,29.20
2019-01-13T04:51:24.639Z,29.10
2019-01-13T04:53:52.284Z,29.10
2019-01-13T04:56:19.962Z,29.20
2019-01-13T04:58:47.545Z,29.20
2019-01-13T05:01:15.233Z,29.10
2019-01-13T05:03:42.848Z,29.20
2019-01-13T05:06:10.447Z,29.20
2019-01-13T05:08:38.120Z,29.10
2019-01-13T05:11:05.733Z,29.20
2019-01-13T05:13:33.357Z,29.10
2019-01-13T05:16:00.953Z,29.10
2019-01-13T05:18:28.623Z,29.10
2019-01-13T05:20:56.257Z,29.20
2019-01-13T05:23:23.928Z,29.10
2019-01-13T05:25:51.668Z,29.10
2019-01-13T05:28:19.253Z,29.10
2019-01-13T05:30:46.861Z,29.10
2019-01-13T05:33:14.517Z,29.20
2019-01-13T05:35:42.159Z,29.20
2019-01-13T05:38:09.833Z,29.10
2019-01-13T05:40:37.490Z,29.10
2019-01-13T05:43:05.157Z,29.10
2019-01-13T05:45:32.760Z,29.70
2019-01-13T05:48:00.479Z,29.20
2019-01-13T05:50:28.145Z,29.10
2019-01-13T05:52:55.849Z,29.10
2019-01-13T05:55:23.975Z,29.30
2019-01-13T05:57:51.645Z,29.30
2019-01-13T06:00:23.105Z,29.70
2019-01-13T06:02:50.783Z,29.40
2019-01-13T06:05:18.527Z,29.40
2019-01-13T06:07:46.207Z,29.40
2019-01-13T06:10:14.876Z,29.40
2019-01-13T06:12:42.514Z,29.60
2019-01-13T06:15:11.493Z,29.50
2019-01-13T06:17:39.122Z,29.60
2019-01-13T06:20:14.114Z,29.70
2019-01-13T06:22:41.826Z,29.70
2019-01-13T06:25:09.441Z,29.80
2019-01-13T06:27:37.085Z,29.90
2019-01-13T06:30:06.393Z,30.00
2019-01-13T06:32:34.054Z,30.00
2019-01-13T06:35:01.648Z,30.00
2019-01-13T06:37:29.390Z,30.00
2019-01-13T06:39:57.045Z,30.10
2019-01-13T06:42:24.730Z,30.10
2019-01-13T06:44:52.376Z,30.20
2019-01-13T06:47:19.969Z,30.10
2019-01-13T06:49:47.598Z,30.30
2019-01-13T06:52:15.285Z,30.40
2019-01-13T06:54:42.892Z,30.40
2019-01-13T06:57:10.662Z,30.40
2019-01-13T06:59:38.322Z,30.40
2019-01-13T07:02:06.006Z,30.40
2019-01-13T07:04:33.672Z,30.30
2019-01-13T07:07:01.322Z,31.20
2019-01-13T07:09:28.987Z,30.70
2019-01-13T07:11:56.679Z,33.10
2019-01-13T07:14:24.348Z,33.70
2019-01-13T07:16:52.176Z,33.70
2019-01-13T07:19:19.838Z,37.10
2019-01-13T07:21:47.597Z,38.30
2019-01-13T07:24:15.202Z,39.60
2019-01-13T07:26:42.834Z,39.80
2019-01-13T07:29:10.532Z,42.50
2019-01-13T07:31:38.140Z,39.80
2019-01-13T07:34:05.714Z,38.20
2019-01-13T07:36:33.510Z,37.40
2019-01-13T07:39:01.166Z,36.90
2019-01-13T07:41:28.784Z,37.70
2019-01-13T07:43:56.504Z,36.70
2019-01-13T07:46:24.146Z,36.10
2019-01-13T07:48:51.762Z,35.60
2019-01-13T07:51:19.410Z,35.10
2019-01-13T07:53:47.059Z,34.70
2019-01-13T07:56:14.719Z,34.60
2019-01-13T07:58:42.386Z,34.70
2019-01-13T08:01:10.094Z,34.70
2019-01-13T08:03:37.738Z,34.40
2019-01-13T08:06:05.356Z,34.60
2019-01-13T08:08:32.960Z,34.80
2019-01-13T08:11:00.610Z,34.80
2019-01-13T08:13:28.210Z,36.40
2019-01-13T08:15:55.854Z,36.40
2019-01-13T08:18:23.470Z,37.20
2019-01-13T08:20:51.093Z,38.70
2019-01-13T08:23:18.734Z,39.80
2019-01-13T08:25:46.440Z,39.80
2019-01-13T08:28:14.071Z,41.60
2019-01-13T08:30:41.678Z,40.90
2019-01-13T08:33:09.275Z,39.60
2019-01-13T08:35:36.915Z,39.50
2019-01-13T08:38:04.555Z,38.00
2019-01-13T08:40:32.270Z,37.30
2019-01-13T08:42:59.972Z,36.80
2019-01-13T08:45:27.713Z,36.30
2019-01-13T08:47:55.379Z,36.00
2019-01-13T08:50:23.097Z,35.70
2019-01-13T08:52:50.794Z,35.60
2019-01-13T08:55:18.420Z,35.50
2019-01-13T08:57:46.167Z,35.10
2019-01-13T09:00:15.418Z,34.80
2019-01-13T09:02:43.038Z,34.50
2019-01-13T09:05:10.669Z,34.20
2019-01-13T09:07:38.389Z,33.50
2019-01-13T09:10:07.629Z,33.50
2019-01-13T09:12:35.243Z,33.50
2019-01-13T09:15:04.131Z,33.50
2019-01-13T09:17:31.807Z,33.50
2019-01-13T09:19:59.457Z,33.50
2019-01-13T09:22:27.137Z,33.40
2019-01-13T09:24:54.771Z,33.40
2019-01-13T09:27:22.479Z,33.40
2019-01-13T09:29:50.128Z,33.40
2019-01-13T09:32:17.761Z,33.40
2019-01-13T09:34:45.423Z,33.40
2019-01-13T09:37:13.115Z,34.00
2019-01-13T09:39:40.760Z,33.40
2019-01-13T09:42:08.456Z,33.30
2019-01-13T09:44:36.221Z,33.40
2019-01-13T09:47:03.923Z,33.30
2019-01-13T09:49:31.687Z,33.20
2019-01-13T09:51:59.335Z,33.20
2019-01-13T09:54:27.009Z,33.20
2019-01-13T09:56:54.665Z,33.20
2019-01-13T09:59:22.258Z,33.20
2019-01-13T10:01:49.948Z,33.10
2019-01-13T10:04:17.593Z,32.70
2019-01-13T10:06:45.331Z,32.70
2019-01-13T10:09:12.963Z,32.60
2019-01-13T10:11:40.554Z,32.60
2019-01-13T10:14:08.313Z,33.10
2019-01-13T10:16:35.977Z,33.40
2019-01-13T10:19:03.547Z,33.40
2019-01-13T10:21:31.192Z,33.30
2019-01-13T10:23:58.813Z,33.30
2019-01-13T10:26:26.393Z,33.10
2019-01-13T10:28:54.166Z,32.70
2019-01-13T10:31:21.842Z,32.70
2019-01-13T10:33:49.471Z,32.80
2019-01-13T10:36:17.126Z,33.50
2019-01-13T10:38:44.892Z,33.50
2019-01-13T10:41:12.621Z,33.50
2019-01-13T10:43:40.227Z,33.50
2019-01-13T10:46:07.983Z,33.50
2019-01-13T10:48:35.665Z,33.50
2019-01-13T10:51:03.328Z,33.50
2019-01-13T10:53:30.995Z,34.10
2019-01-13T10:55:58.669Z,35.30
2019-01-13T10:58:26.253Z,35.00
2019-01-13T11:00:53.849Z,34.70
2019-01-13T11:03:21.513Z,35.80
2019-01-13T11:05:49.158Z,35.20
2019-01-13T11:08:16.820Z,35.10
2019-01-13T11:10:44.499Z,35.30
2019-01-13T11:13:12.143Z,35.30
2019-01-13T11:15:40.425Z,35.20
2019-01-13T11:18:08.091Z,35.10
2019-01-13T11:20:35.732Z,35.40
2019-01-13T11:23:03.516Z,35.60
2019-01-13T11:25:31.096Z,35.40
2019-01-13T11:27:58.753Z,35.00
2019-01-13T11:30:26.620Z,34.80
2019-01-13T11:32:57.324Z,34.50
2019-01-13T11:35:24.905Z,34.50
2019-01-13T11:37:52.575Z,34.40
2019-01-13T11:40:21.357Z,34.30
2019-01-13T11:42:48.983Z,34.40
2019-01-13T11:45:16.717Z,35.10
2019-01-13T11:47:44.463Z,34.60
2019-01-13T11:50:13.699Z,34.50
2019-01-13T11:52:41.306Z,34.30
2019-01-13T11:55:10.018Z,34.40
2019-01-13T11:57:37.710Z,34.20
2019-01-13T12:00:10.058Z,34.20
2019-01-13T12:02:37.666Z,34.00
2019-01-13T12:05:06.877Z,34.00
2019-01-13T12:07:34.558Z,34.40
2019-01-13T12:10:02.224Z,34.10
2019-01-13T12:12:29.847Z,34.30
2019-01-13T12:14:57.574Z,34.20
2019-01-13T12:17:25.198Z,34.90
2019-01-13T12:19:52.786Z,34.20
2019-01-13T12:22:20.484Z,34.20
2019-01-13T12:24:48.146Z,34.10
2019-01-13T12:27:15.738Z,34.00
2019-01-13T12:29:43.378Z,34.00
2019-01-13T12:32:11.058Z,34.40
2019-01-13T12:34:38.800Z,34.20
2019-01-13T12:37:06.463Z,34.20
2019-01-13T12:39:34.059Z,34.30
2019-01-13T12:42:01.710Z,34.30
2019-01-13T12:44:29.380Z,34.20
2019-01-13T12:46:56.990Z,34.10
2019-01-13T12:49:24.620Z,34.00
2019-01-13T12:51:52.249Z,34.10
2019-01-13T12:54:19.868Z,34.20
2019-01-13T12:56:47.496Z,34.10
2019-01-13T12:59:15.256Z,34.30
2019-01-13T13:01:42.918Z,34.20
2019-01-13T13:04:10.602Z,34.00
2019-01-13T13:06:38.276Z,33.90
2019-01-13T13:09:08.187Z,33.50
2019-01-13T13:11:35.798Z,33.50
2019-01-13T13:14:03.465Z,34.30
2019-01-13T13:16:31.065Z,33.50
2019-01-13T13:18:58.648Z,33.50
2019-01-13T13:21:26.316Z,33.50
2019-01-13T13:23:54.135Z,33.50
2019-01-13T13:26:21.824Z,33.50
2019-01-13T13:28:49.562Z,33.50
2019-01-13T13:31:17.194Z,33.50
2019-01-13T13:33:44.961Z,33.50
2019-01-13T13:36:12.802Z,33.50
2019-01-13T13:38:40.470Z,33.50
2019-01-13T13:41:08.190Z,33.50
2019-01-13T13:43:35.459Z,33.50
2019-01-13T13:46:03.304Z,33.60
2019-01-13T13:48:31.183Z,33.70
2019-01-13T13:50:58.834Z,34.30
2019-01-13T13:53:26.437Z,35.80
2019-01-13T13:55:54.099Z,35.20
2019-01-13T13:58:21.840Z,35.70
2019-01-13T14:00:49.474Z,39.70
2019-01-13T14:03:17.194Z,44.20
2019-01-13T14:05:44.954Z,46.20
2019-01-13T14:08:12.635Z,46.60
2019-01-13T14:10:41.495Z,41.60
2019-01-13T14:13:09.248Z,39.80
2019-01-13T14:15:37.993Z,41.20
2019-01-13T14:18:05.696Z,42.60
2019-01-13T14:20:33.440Z,46.50
2019-01-13T14:23:01.091Z,44.40
2019-01-13T14:25:28.708Z,47.70
2019-01-13T14:27:56.434Z,46.10
2019-01-13T14:30:25.250Z,45.90
2019-01-13T14:32:52.922Z,45.00
2019-01-13T14:35:20.521Z,45.90
2019-01-13T14:37:48.311Z,43.40
2019-01-13T14:40:20.456Z,47.20
2019-01-13T14:42:48.167Z,43.40
2019-01-13T14:45:16.962Z,40.90
2019-01-13T14:47:44.644Z,39.70
2019-01-13T14:50:15.090Z,39.60
2019-01-13T14:52:42.919Z,39.50
2019-01-13T14:55:10.540Z,39.40
2019-01-13T14:57:38.239Z,39.40
2019-01-13T15:00:10.564Z,39.30
2019-01-13T15:02:38.182Z,39.30
2019-01-13T15:05:07.161Z,39.30
2019-01-13T15:07:34.908Z,39.20
2019-01-13T15:10:02.931Z,39.10
2019-01-13T15:12:30.595Z,39.10
2019-01-13T15:14:58.236Z,40.80
2019-01-13T15:17:26.100Z,39.40
2019-01-13T15:19:53.794Z,39.40
2019-01-13T15:22:21.462Z,39.50
2019-01-13T15:24:49.151Z,39.80
2019-01-13T15:27:16.906Z,39.80
2019-01-13T15:29:44.722Z,39.80
2019-01-13T15:32:12.451Z,38.40
2019-01-13T15:34:40.178Z,38.10
2019-01-13T15:37:07.872Z,40.00
2019-01-13T15:39:35.511Z,38.80
2019-01-13T15:42:03.300Z,38.40
2019-01-13T15:44:31.019Z,38.00
2019-01-13T15:46:58.641Z,37.60
2019-01-13T15:49:26.360Z,38.50
2019-01-13T15:51:53.936Z,37.80
2019-01-13T15:54:21.636Z,37.50
2019-01-13T15:56:49.293Z,38.30
2019-01-13T15:59:16.888Z,37.20
2019-01-13T16:01:44.634Z,38.00
2019-01-13T16:04:14.806Z,45.80
2019-01-13T16:06:41.748Z,40.70
2019-01-13T16:09:09.455Z,40.60
2019-01-13T16:11:37.240Z,40.40
2019-01-13T16:14:04.982Z,39.90
2019-01-13T16:16:32.595Z,38.70
2019-01-13T16:19:00.215Z,37.90
2019-01-13T16:21:28.043Z,37.40
2019-01-13T16:23:55.697Z,36.60
2019-01-13T16:26:23.500Z,37.50
2019-01-13T16:28:51.149Z,38.50
2019-01-13T16:31:18.881Z,38.10
2019-01-13T16:33:46.531Z,39.90
2019-01-13T16:36:14.364Z,37.30
2019-01-13T16:38:42.017Z,41.20
2019-01-13T16:41:09.668Z,38.70
2019-01-13T16:43:37.381Z,40.20
2019-01-13T16:46:04.968Z,40.40
2019-01-13T16:48:32.581Z,41.40
2019-01-13T16:51:00.260Z,41.50
2019-01-13T16:53:27.933Z,42.30
2019-01-13T16:55:55.640Z,44.00
2019-01-13T16:58:23.401Z,44.80
2019-01-13T17:00:51.029Z,45.80
2019-01-13T17:03:18.672Z,43.30
2019-01-13T17:05:46.284Z,41.90
2019-01-13T17:08:13.945Z,41.90
2019-01-13T17:10:43.216Z,47.60
2019-01-13T17:13:10.927Z,47.60
2019-01-13T17:15:41.628Z,42.70
2019-01-13T17:18:09.247Z,42.10
2019-01-13T17:20:36.922Z,42.80
2019-01-13T17:23:04.541Z,43.30
2019-01-13T17:25:32.140Z,44.20
2019-01-13T17:27:59.908Z,44.30
2019-01-13T17:30:28.440Z,44.40
2019-01-13T17:32:56.154Z,44.70
2019-01-13T17:35:23.853Z,44.50
2019-01-13T17:37:51.583Z,43.90
2019-01-13T17:40:20.213Z,42.40
2019-01-13T17:42:47.867Z,30.90
2019-01-13T17:45:16.655Z,28.10
2019-01-13T17:47:45.510Z,29.30
2019-01-13T17:50:14.761Z,34.20
2019-01-13T17:52:42.439Z,34.60
2019-01-13T17:55:11.605Z,34.60
2019-01-13T17:57:39.276Z,35.20
2019-01-13T18:00:17.672Z,36.00
2019-01-13T18:02:45.369Z,36.20
2019-01-13T18:05:13.028Z,36.20
2019-01-13T18:07:40.768Z,36.10
2019-01-13T18:10:09.565Z,36.20
2019-01-13T18:12:37.244Z,36.10
2019-01-13T18:15:06.660Z,36.00
2019-01-13T18:17:34.396Z,36.00
2019-01-13T18:20:02.272Z,36.00
2019-01-13T18:22:29.916Z,36.20
2019-01-13T18:25:06.521Z,36.20
2019-01-13T18:27:40.409Z,36.30
2019-01-13T18:30:09.778Z,36.50
2019-01-13T18:32:37.446Z,36.60
2019-01-13T18:35:06.926Z,36.80
2019-01-13T18:37:34.554Z,36.80
2019-01-13T18:40:02.202Z,36.80
2019-01-13T18:42:29.869Z,36.90
2019-01-13T18:44:57.474Z,37.10
2019-01-13T18:47:25.082Z,37.10
2019-01-13T18:49:52.912Z,37.30
2019-01-13T18:52:20.525Z,37.30
2019-01-13T18:54:48.131Z,39.80
2019-01-13T18:57:15.790Z,38.50
2019-01-13T18:59:43.411Z,38.30
2019-01-13T19:02:11.061Z,38.80
2019-01-13T19:04:38.844Z,39.50
2019-01-13T19:07:06.427Z,39.80
2019-01-13T19:09:34.127Z,39.80
2019-01-13T19:12:01.848Z,39.80
2019-01-13T19:14:31.089Z,39.80
2019-01-13T19:16:58.749Z,39.80
2019-01-13T19:19:26.665Z,39.80
2019-01-13T19:21:54.272Z,39.80
2019-01-13T19:24:21.884Z,39.80
2019-01-13T19:26:49.549Z,39.80
2019-01-13T19:29:17.190Z,39.80
2019-01-13T19:31:44.786Z,39.80
2019-01-13T19:34:12.426Z,39.70
2019-01-13T19:36:40.069Z,39.80
2019-01-13T19:39:07.958Z,39.70
2019-01-13T19:41:35.612Z,39.80
2019-01-13T19:44:03.336Z,39.70
2019-01-13T19:46:30.955Z,39.70
2019-01-13T19:48:58.636Z,39.80
2019-01-13T19:51:26.402Z,39.70
2019-01-13T19:53:54.138Z,39.70
2019-01-13T19:56:21.850Z,39.70
2019-01-13T19:58:49.510Z,39.70
2019-01-13T20:01:17.255Z,39.80
2019-01-13T20:03:44.923Z,39.80
2019-01-13T20:06:12.567Z,39.80
2019-01-13T20:08:40.221Z,39.70
2019-01-13T20:11:07.872Z,39.80
2019-01-13T20:13:35.554Z,39.80
2019-01-13T20:16:03.185Z,39.70
2019-01-13T20:18:30.936Z,39.70
2019-01-13T20:20:58.640Z,39.70
2019-01-13T20:23:26.379Z,39.80
2019-01-13T20:25:54.064Z,39.70
2019-01-13T20:28:21.796Z,39.70
2019-01-13T20:30:49.519Z,39.70
2019-01-13T20:33:17.258Z,39.70
2019-01-13T20:35:44.942Z,39.80
2019-01-13T20:38:12.566Z,39.60
2019-01-13T20:40:40.228Z,39.70
2019-01-13T20:43:07.950Z,39.70
2019-01-13T20:45:36.941Z,39.60
2019-01-13T20:48:04.763Z,39.70
2019-01-13T20:50:32.369Z,39.70
2019-01-13T20:52:59.974Z,39.70
2019-01-13T20:55:27.755Z,39.70
2019-01-13T20:57:55.458Z,39.70
2019-01-13T21:00:24.213Z,39.60
2019-01-13T21:02:52.054Z,39.70
2019-01-13T21:05:26.292Z,39.60
2019-01-13T21:07:49.059Z,39.70
2019-01-13T21:10:17.436Z,39.70
2019-01-13T21:12:45.075Z,39.70
2019-01-13T21:15:14.176Z,39.60
2019-01-13T21:17:41.854Z,39.70
2019-01-13T21:20:09.934Z,39.60
2019-01-13T21:22:37.572Z,39.60
2019-01-13T21:25:06.789Z,39.60
2019-01-13T21:27:34.570Z,39.60
2019-01-13T21:30:02.310Z,39.60
2019-01-13T21:32:29.971Z,39.60
2019-01-13T21:34:57.756Z,39.70
2019-01-13T21:37:25.717Z,39.50
2019-01-13T21:39:53.406Z,39.70
2019-01-13T21:42:21.068Z,39.70
2019-01-13T21:44:48.704Z,39.70
2019-01-13T21:47:16.436Z,39.70
2019-01-13T21:49:44.106Z,39.60
2019-01-13T21:52:11.733Z,39.60
2019-01-13T21:54:39.462Z,39.70
2019-01-13T21:57:07.138Z,39.70
2019-01-13T21:59:34.766Z,39.70
2019-01-13T22:02:02.458Z,39.60
2019-01-13T22:04:30.066Z,39.60
2019-01-13T22:06:57.729Z,39.60
2019-01-13T22:09:25.326Z,39.60
2019-01-13T22:11:53.374Z,39.70
2019-01-13T22:14:21.088Z,39.70
2019-01-13T22:16:48.713Z,39.60
2019-01-13T22:19:16.395Z,39.80
2019-01-13T22:21:44.054Z,39.70
2019-01-13T22:24:11.672Z,39.80
2019-01-13T22:26:39.273Z,39.70
2019-01-13T22:29:06.976Z,39.70
2019-01-13T22:31:34.618Z,39.70
2019-01-13T22:34:02.298Z,39.70
2019-01-13T22:36:29.894Z,39.70
2019-01-13T22:38:57.530Z,39.70
2019-01-13T22:41:25.182Z,39.60
2019-01-13T22:43:52.817Z,39.60
2019-01-13T22:46:20.476Z,39.60
2019-01-13T22:48:48.047Z,39.60
2019-01-13T22:51:15.677Z,39.50
2019-01-13T22:53:43.393Z,39.50
2019-01-13T22:56:10.992Z,39.60
2019-01-13T22:58:38.593Z,39.60
2019-01-13T23:01:09.525Z,39.50
2019-01-13T23:03:37.389Z,39.60
2019-01-13T23:06:05.107Z,39.50
2019-01-13T23:08:32.769Z,39.60
2019-01-13T23:11:00.430Z,39.50
2019-01-13T23:13:28.063Z,39.50
2019-01-13T23:15:55.669Z,39.30
2019-01-13T23:18:23.291Z,39.50
2019-01-13T23:20:50.984Z,39.50
2019-01-13T23:23:18.609Z,39.50
2019-01-13T23:25:46.239Z,39.50
2019-01-13T23:28:13.906Z,39.50
2019-01-13T23:30:43.255Z,39.60
2019-01-13T23:33:10.935Z,39.50
2019-01-13T23:35:38.623Z,39.50
2019-01-13T23:38:06.234Z,39.50
2019-01-13T23:40:33.933Z,39.50
2019-01-13T23:43:02.064Z,39.50
2019-01-13T23:45:29.679Z,39.50
2019-01-13T23:47:57.468Z,39.50
2019-01-13T23:50:25.127Z,39.50
2019-01-13T23:52:52.877Z,39.50
2019-01-13T23:55:20.511Z,39.50
2019-01-13T23:57:48.120Z,39.50
